createdAt,value
2017-11-24T00:01:41.465Z,42.20
2017-11-24T00:04:09.813Z,38.28
2017-11-24T00:06:37.442Z,46.30
2017-11-24T00:09:05.078Z,39.95
2017-11-24T00:11:32.662Z,42.67
2017-11-24T00:14:00.233Z,37.50
2017-11-24T00:16:27.808Z,36.45
2017-11-24T00:18:55.485Z,41.70
2017-11-24T00:21:23.019Z,43.40
2017-11-24T00:23:50.564Z,43.65
2017-11-24T00:26:18.578Z,38.30
2017-11-24T00:28:46.156Z,44.60
2017-11-24T00:31:13.754Z,47.75
2017-11-24T00:33:41.347Z,37.13
2017-11-24T00:36:08.950Z,41.92
2017-11-24T00:38:36.974Z,46.53
2017-11-24T00:41:04.559Z,45.17
2017-11-24T00:43:32.873Z,37.35
2017-11-24T00:46:00.421Z,45.03
2017-11-24T00:48:28.058Z,38.05
2017-11-24T00:50:56.365Z,42.17
2017-11-24T00:53:23.905Z,41.95
2017-11-24T00:55:51.484Z,35.42
2017-11-24T00:58:19.070Z,36.25
2017-11-24T01:00:46.677Z,40.95
2017-11-24T01:03:15.022Z,37.08
2017-11-24T01:05:42.606Z,41.28
2017-11-24T01:08:10.188Z,34.72
2017-11-24T01:10:37.767Z,45.75
2017-11-24T01:13:05.298Z,41.55
2017-11-24T01:15:32.850Z,35.05
2017-11-24T01:18:01.270Z,38.03
2017-11-24T01:20:28.843Z,34.83
2017-11-24T01:22:56.413Z,39.53
2017-11-24T01:25:23.981Z,40.30
2017-11-24T01:27:51.597Z,50.65
2017-11-24T01:30:19.165Z,35.28
2017-11-24T01:32:46.741Z,43.22
2017-11-24T01:35:14.356Z,45.55
2017-11-24T01:37:42.732Z,41.63
2017-11-24T01:40:11.158Z,42.55
2017-11-24T01:42:39.210Z,43.90
2017-11-24T01:45:06.793Z,46.03
2017-11-24T01:47:34.478Z,42.42
2017-11-24T01:50:02.015Z,44.88
2017-11-24T01:52:29.620Z,41.90
2017-11-24T01:54:57.205Z,44.28
2017-11-24T01:57:24.782Z,47.13
2017-11-24T01:59:52.380Z,44.22
2017-11-24T02:02:19.965Z,42.90
2017-11-24T02:04:47.552Z,45.47
2017-11-24T02:07:15.128Z,49.05
2017-11-24T02:09:42.728Z,46.50
2017-11-24T02:12:10.279Z,46.45
2017-11-24T02:14:37.857Z,51.25
2017-11-24T02:17:05.434Z,42.95
2017-11-24T02:19:33.793Z,50.97
2017-11-24T02:22:01.343Z,43.15
2017-11-24T02:24:28.942Z,40.97
2017-11-24T02:26:56.477Z,43.50
2017-11-24T02:29:26.362Z,44.65
2017-11-24T02:31:54.112Z,42.03
2017-11-24T02:34:22.699Z,43.38
2017-11-24T02:36:50.303Z,43.15
2017-11-24T02:39:17.911Z,41.45
2017-11-24T02:41:45.474Z,48.90
2017-11-24T02:44:13.083Z,53.63
2017-11-24T02:46:40.698Z,42.35
2017-11-24T02:49:08.256Z,44.42
2017-11-24T02:51:35.805Z,47.97
2017-11-24T02:54:03.822Z,39.70
2017-11-24T02:56:31.406Z,43.40
2017-11-24T02:58:58.975Z,42.90
2017-11-24T03:01:27.029Z,38.80
2017-11-24T03:03:55.395Z,37.00
2017-11-24T03:06:22.927Z,41.58
2017-11-24T03:08:50.510Z,34.58
2017-11-24T03:11:18.126Z,38.30
2017-11-24T03:13:45.700Z,47.08
2017-11-24T03:16:13.249Z,39.90
2017-11-24T03:18:41.304Z,45.38
2017-11-24T03:21:08.878Z,39.70
2017-11-24T03:23:36.465Z,43.25
2017-11-24T03:26:04.049Z,30.88
2017-11-24T03:28:31.635Z,32.72
2017-11-24T03:30:59.226Z,30.88
2017-11-24T03:33:26.832Z,36.20
2017-11-24T03:35:54.401Z,40.05
2017-11-24T03:38:22.062Z,38.00
2017-11-24T03:40:49.634Z,32.95
2017-11-24T03:43:17.213Z,33.85
2017-11-24T03:45:44.802Z,36.00
2017-11-24T03:48:12.350Z,34.60
2017-11-24T03:50:40.729Z,31.70
2017-11-24T03:53:08.335Z,33.00
2017-11-24T03:55:35.951Z,34.03
2017-11-24T03:58:03.535Z,33.25
2017-11-24T04:00:31.134Z,31.65
2017-11-24T04:02:58.717Z,34.90
2017-11-24T04:05:26.327Z,29.52
2017-11-24T04:07:53.965Z,34.78
2017-11-24T04:10:21.564Z,30.88
2017-11-24T04:12:49.241Z,31.85
2017-11-24T04:15:16.816Z,37.63
2017-11-24T04:17:44.388Z,38.33
2017-11-24T04:20:11.979Z,34.83
2017-11-24T04:22:39.670Z,29.30
2017-11-24T04:25:07.344Z,26.23
2017-11-24T04:27:35.662Z,26.87
2017-11-24T04:30:03.268Z,30.52
2017-11-24T04:32:30.865Z,31.25
2017-11-24T04:34:58.710Z,37.35
2017-11-24T04:37:26.328Z,28.20
2017-11-24T04:39:53.883Z,32.35
2017-11-24T04:42:21.449Z,29.15
2017-11-24T04:44:49.011Z,37.03
2017-11-24T04:47:16.566Z,32.00
2017-11-24T04:49:44.194Z,31.50
2017-11-24T04:52:11.788Z,34.60
2017-11-24T04:54:39.385Z,28.48
2017-11-24T04:57:06.989Z,27.87
2017-11-24T04:59:34.613Z,34.50
2017-11-24T05:02:02.234Z,37.70
2017-11-24T05:04:29.798Z,31.40
2017-11-24T05:06:57.350Z,31.90
2017-11-24T05:09:24.949Z,31.55
2017-11-24T05:11:52.545Z,36.83
2017-11-24T05:14:20.135Z,39.13
2017-11-24T05:16:47.705Z,37.08
2017-11-24T05:19:15.308Z,30.52
2017-11-24T05:21:42.903Z,34.85
2017-11-24T05:24:10.524Z,43.65
2017-11-24T05:26:38.124Z,36.63
2017-11-24T05:29:05.768Z,37.90
2017-11-24T05:31:33.362Z,37.67
2017-11-24T05:34:00.993Z,48.60
2017-11-24T05:36:28.600Z,28.70
2017-11-24T05:38:56.190Z,31.65
2017-11-24T05:41:23.747Z,30.90
2017-11-24T05:43:51.337Z,27.42
2017-11-24T05:46:18.936Z,29.92
2017-11-24T05:48:46.533Z,30.80
2017-11-24T05:51:14.125Z,31.55
2017-11-24T05:53:41.711Z,29.95
2017-11-24T05:56:09.264Z,30.67
2017-11-24T05:58:36.853Z,30.90
2017-11-24T06:01:04.453Z,27.85
2017-11-24T06:03:32.048Z,31.95
2017-11-24T06:05:59.647Z,29.73
2017-11-24T06:08:28.087Z,35.75
2017-11-24T06:10:55.718Z,32.05
2017-11-24T06:13:24.980Z,34.00
2017-11-24T06:15:56.252Z,32.38
2017-11-24T06:18:24.846Z,35.95
2017-11-24T06:20:53.364Z,41.72
2017-11-24T06:23:21.192Z,33.53
2017-11-24T06:25:48.806Z,35.97
2017-11-24T06:28:16.818Z,31.67
2017-11-24T06:30:45.238Z,30.17
2017-11-24T06:33:19.073Z,30.67
2017-11-24T06:35:50.516Z,34.08
2017-11-24T06:38:18.071Z,34.50
2017-11-24T06:40:45.665Z,28.95
2017-11-24T06:43:13.990Z,30.98
2017-11-24T06:45:41.620Z,33.92
2017-11-24T06:48:09.225Z,29.80
2017-11-24T06:50:36.787Z,25.02
2017-11-24T06:53:04.383Z,32.97
2017-11-24T06:55:31.937Z,29.77
2017-11-24T06:57:59.498Z,30.67
2017-11-24T07:00:27.831Z,33.30
2017-11-24T07:02:55.388Z,28.67
2017-11-24T07:05:22.947Z,33.67
2017-11-24T07:07:50.617Z,29.10
2017-11-24T07:10:18.312Z,31.12
2017-11-24T07:12:45.980Z,30.37
2017-11-24T07:15:13.550Z,29.77
2017-11-24T07:17:41.160Z,28.25
2017-11-24T07:20:08.736Z,29.52
2017-11-24T07:22:37.412Z,30.55
2017-11-24T07:25:05.131Z,28.85
2017-11-24T07:27:32.823Z,40.28
2017-11-24T07:30:00.396Z,26.50
2017-11-24T07:32:27.988Z,27.87
2017-11-24T07:34:55.575Z,28.70
2017-11-24T07:37:23.172Z,27.30
2017-11-24T07:39:50.768Z,28.25
2017-11-24T07:42:18.356Z,29.27
2017-11-24T07:44:46.714Z,34.00
2017-11-24T07:47:14.340Z,27.85
2017-11-24T07:49:41.894Z,28.12
2017-11-24T07:52:09.442Z,28.85
2017-11-24T07:54:37.016Z,26.42
2017-11-24T07:57:04.650Z,28.20
2017-11-24T07:59:32.244Z,24.00
2017-11-24T08:01:59.853Z,24.15
2017-11-24T08:04:28.217Z,24.67
2017-11-24T08:06:55.809Z,28.58
2017-11-24T08:09:23.452Z,29.75
2017-11-24T08:11:52.596Z,25.35
2017-11-24T08:14:20.155Z,18.37
2017-11-24T08:16:47.744Z,24.98
2017-11-24T08:19:15.336Z,20.52
2017-11-24T08:21:42.927Z,24.73
2017-11-24T08:24:10.524Z,28.10
2017-11-24T08:26:38.104Z,19.77
2017-11-24T08:29:06.422Z,22.90
2017-11-24T08:31:34.023Z,20.92
2017-11-24T08:34:01.658Z,22.52
2017-11-24T08:36:29.216Z,23.58
2017-11-24T08:38:56.798Z,21.27
2017-11-24T08:41:24.388Z,22.87
2017-11-24T08:43:52.750Z,23.92
2017-11-24T08:46:26.928Z,24.65
2017-11-24T08:49:00.228Z,23.25
2017-11-24T08:51:27.779Z,18.77
2017-11-24T08:53:55.335Z,25.12
2017-11-24T08:56:22.891Z,20.92
2017-11-24T08:58:50.478Z,20.80
2017-11-24T09:01:18.102Z,19.17
2017-11-24T09:03:45.696Z,21.30
2017-11-24T09:06:13.301Z,28.40
2017-11-24T09:08:40.895Z,18.92
2017-11-24T09:11:08.513Z,18.42
2017-11-24T09:13:36.119Z,23.30
2017-11-24T09:16:03.755Z,23.98
2017-11-24T09:18:31.350Z,20.23
2017-11-24T09:20:58.957Z,21.77
2017-11-24T09:23:26.552Z,24.73
2017-11-24T09:25:54.141Z,21.30
2017-11-24T09:28:21.823Z,28.58
2017-11-24T09:30:49.444Z,19.40
2017-11-24T09:33:17.070Z,28.52
2017-11-24T09:35:44.639Z,28.58
2017-11-24T09:38:12.268Z,21.52
2017-11-24T09:40:39.905Z,22.87
2017-11-24T09:43:07.476Z,21.08
2017-11-24T09:45:35.124Z,28.30
2017-11-24T09:48:02.673Z,19.40
2017-11-24T09:50:30.237Z,19.02
2017-11-24T09:52:57.837Z,18.45
2017-11-24T09:55:25.439Z,21.52
2017-11-24T09:57:53.000Z,21.65
2017-11-24T10:00:20.592Z,23.30
2017-11-24T10:02:48.200Z,19.77
2017-11-24T10:05:15.802Z,21.17
2017-11-24T10:07:43.422Z,18.20
2017-11-24T10:10:11.032Z,22.70
2017-11-24T10:12:38.644Z,20.05
2017-11-24T10:15:06.208Z,18.70
2017-11-24T10:17:34.585Z,21.98
2017-11-24T10:20:02.917Z,44.15
2017-11-24T10:22:43.465Z,30.40
2017-11-24T10:25:11.069Z,23.42
2017-11-24T10:27:38.669Z,38.42
2017-11-24T10:30:06.265Z,24.98
2017-11-24T10:32:33.904Z,30.27
2017-11-24T10:35:01.507Z,34.35
2017-11-24T10:37:29.107Z,22.02
2017-11-24T10:39:56.703Z,34.15
2017-11-24T10:42:24.318Z,26.10
2017-11-24T10:44:52.022Z,21.17
2017-11-24T10:47:19.591Z,32.42
2017-11-24T10:49:47.192Z,19.58
2017-11-24T10:52:15.560Z,19.65
2017-11-24T10:54:43.159Z,28.92
2017-11-24T10:57:10.761Z,27.30
2017-11-24T10:59:38.370Z,21.77
2017-11-24T11:02:05.970Z,20.62
2017-11-24T11:04:33.565Z,26.90
2017-11-24T11:07:01.182Z,19.33
2017-11-24T11:09:28.735Z,26.02
2017-11-24T11:11:56.301Z,26.20
2017-11-24T11:14:23.860Z,23.00
2017-11-24T11:16:51.430Z,20.80
2017-11-24T11:19:19.088Z,40.15
2017-11-24T11:21:46.681Z,21.23
2017-11-24T11:24:14.298Z,20.50
2017-11-24T11:26:41.904Z,17.33
2017-11-24T11:29:09.529Z,19.00
2017-11-24T11:31:37.126Z,23.02
2017-11-24T11:34:04.736Z,20.50
2017-11-24T11:36:32.912Z,32.83
2017-11-24T11:39:02.464Z,25.85
2017-11-24T11:41:30.090Z,19.40
2017-11-24T11:43:57.704Z,15.95
2017-11-24T11:46:26.070Z,18.40
2017-11-24T11:48:53.676Z,26.33
2017-11-24T11:51:21.300Z,22.77
2017-11-24T11:53:48.933Z,20.52
2017-11-24T11:56:16.553Z,19.37
2017-11-24T11:58:44.189Z,23.33
2017-11-24T12:01:11.857Z,24.45
2017-11-24T12:03:39.464Z,20.67
2017-11-24T12:06:07.017Z,29.23
2017-11-24T12:08:34.616Z,16.08
2017-11-24T12:11:03.426Z,20.10
2017-11-24T12:13:31.798Z,22.67
2017-11-24T12:16:00.142Z,26.60
2017-11-24T12:18:27.741Z,23.10
2017-11-24T12:20:55.357Z,21.58
2017-11-24T12:23:27.533Z,21.20
2017-11-24T12:25:55.333Z,21.02
2017-11-24T12:28:23.043Z,22.30
2017-11-24T12:30:51.659Z,18.50
2017-11-24T12:33:19.213Z,24.10
2017-11-24T12:35:46.784Z,22.48
2017-11-24T12:38:14.384Z,24.23
2017-11-24T12:40:42.033Z,17.12
2017-11-24T12:43:10.411Z,23.52
2017-11-24T12:45:38.018Z,21.80
2017-11-24T12:48:05.652Z,21.58
2017-11-24T12:50:33.312Z,20.73
2017-11-24T12:53:00.914Z,23.73
2017-11-24T12:55:28.469Z,18.15
2017-11-24T12:57:56.056Z,23.58
2017-11-24T13:00:23.693Z,22.80
2017-11-24T13:02:51.265Z,24.90
2017-11-24T13:05:18.865Z,21.73
2017-11-24T13:07:47.219Z,25.33
2017-11-24T13:10:14.776Z,26.98
2017-11-24T13:12:42.380Z,24.50
2017-11-24T13:15:09.958Z,19.73
2017-11-24T13:17:37.558Z,22.70
2017-11-24T13:20:05.165Z,22.45
2017-11-24T13:22:32.822Z,22.13
2017-11-24T13:25:00.388Z,25.50
2017-11-24T13:27:27.937Z,24.42
2017-11-24T13:29:55.534Z,23.00
2017-11-24T13:32:23.091Z,24.87
2017-11-24T13:34:50.674Z,26.65
2017-11-24T13:37:18.253Z,32.97
2017-11-24T13:39:46.614Z,39.20
2017-11-24T13:42:14.345Z,27.87
2017-11-24T13:44:41.953Z,28.60
2017-11-24T13:47:09.547Z,25.50
2017-11-24T13:49:37.136Z,26.10
2017-11-24T13:52:04.682Z,26.58
2017-11-24T13:54:32.235Z,23.98
2017-11-24T13:56:59.829Z,39.40
2017-11-24T13:59:27.425Z,28.40
2017-11-24T14:01:55.744Z,27.42
2017-11-24T14:04:23.345Z,24.95
2017-11-24T14:06:50.942Z,27.42
2017-11-24T14:09:18.533Z,27.77
2017-11-24T14:11:46.120Z,34.40
2017-11-24T14:14:13.707Z,25.27
2017-11-24T14:16:41.296Z,25.37
2017-11-24T14:19:08.884Z,29.08
2017-11-24T14:21:36.530Z,27.35
2017-11-24T14:24:04.124Z,31.50
2017-11-24T14:26:31.715Z,24.33
2017-11-24T14:29:00.078Z,20.88
2017-11-24T14:31:28.444Z,22.60
2017-11-24T14:33:56.284Z,30.45
2017-11-24T14:36:23.876Z,24.75
2017-11-24T14:38:51.498Z,27.80
2017-11-24T14:41:19.093Z,27.42
2017-11-24T14:43:46.763Z,31.17
2017-11-24T14:46:14.395Z,27.42
2017-11-24T14:48:41.990Z,29.40
2017-11-24T14:51:09.584Z,26.05
2017-11-24T14:53:38.072Z,31.48
2017-11-24T14:56:05.682Z,32.10
2017-11-24T14:58:33.291Z,35.97
2017-11-24T15:01:00.913Z,26.60
2017-11-24T15:03:28.496Z,43.15
2017-11-24T15:05:56.111Z,26.58
2017-11-24T15:08:23.664Z,34.17
2017-11-24T15:10:51.243Z,28.70
2017-11-24T15:13:18.835Z,29.42
2017-11-24T15:15:46.442Z,28.38
2017-11-24T15:18:14.035Z,26.90
2017-11-24T15:20:41.627Z,106.68
2017-11-24T15:23:09.223Z,69.37
2017-11-24T15:25:36.816Z,34.33
2017-11-24T15:28:04.404Z,37.38
2017-11-24T15:30:31.948Z,31.12
2017-11-24T15:32:59.601Z,34.95
2017-11-24T15:35:27.194Z,36.38
2017-11-24T15:37:54.974Z,33.53
2017-11-24T15:40:22.582Z,35.72
2017-11-24T15:42:50.183Z,34.65
2017-11-24T15:45:17.762Z,28.85
2017-11-24T15:47:45.352Z,32.78
2017-11-24T15:50:12.944Z,30.42
2017-11-24T15:52:41.297Z,29.60
2017-11-24T15:55:08.935Z,36.78
2017-11-24T15:57:36.490Z,42.35
2017-11-24T16:00:04.081Z,29.08
2017-11-24T16:02:31.636Z,33.42
2017-11-24T16:04:59.238Z,23.95
2017-11-24T16:07:26.790Z,31.77
2017-11-24T16:09:54.344Z,29.85
2017-11-24T16:12:21.937Z,33.55
2017-11-24T16:14:49.527Z,31.55
2017-11-24T16:17:17.118Z,31.20
2017-11-24T16:19:45.473Z,34.00
2017-11-24T16:22:13.116Z,36.95
2017-11-24T16:24:40.710Z,34.95
2017-11-24T16:27:08.287Z,42.05
2017-11-24T16:29:35.918Z,31.87
2017-11-24T16:32:03.537Z,33.80
2017-11-24T16:34:31.134Z,26.58
2017-11-24T16:36:58.729Z,27.65
2017-11-24T16:39:26.324Z,27.58
2017-11-24T16:41:53.922Z,32.53
2017-11-24T16:44:21.521Z,47.15
2017-11-24T16:46:49.168Z,39.08
2017-11-24T16:49:16.786Z,38.50
2017-11-24T16:51:44.364Z,51.70
2017-11-24T16:54:11.989Z,39.78
2017-11-24T16:56:39.610Z,59.83
2017-11-24T16:59:07.213Z,54.15
2017-11-24T17:01:34.783Z,47.97
2017-11-24T17:04:02.390Z,57.70
2017-11-24T17:06:30.010Z,50.08
2017-11-24T17:08:57.689Z,41.92
2017-11-24T17:11:25.304Z,43.75
2017-11-24T17:13:52.910Z,49.40
2017-11-24T17:16:20.501Z,39.53
2017-11-24T17:18:48.091Z,47.58
2017-11-24T17:21:15.693Z,38.05
2017-11-24T17:23:43.290Z,43.58
2017-11-24T17:26:10.889Z,39.08
2017-11-24T17:28:38.552Z,38.70
2017-11-24T17:31:06.083Z,44.63
2017-11-24T17:33:33.639Z,35.80
2017-11-24T17:36:01.230Z,33.88
2017-11-24T17:38:28.797Z,38.47
2017-11-24T17:40:56.381Z,40.75
2017-11-24T17:43:23.989Z,35.67
2017-11-24T17:45:51.588Z,34.78
2017-11-24T17:48:19.180Z,39.60
2017-11-24T17:50:46.772Z,45.97
2017-11-24T17:53:14.378Z,51.58
2017-11-24T17:55:41.932Z,57.13
2017-11-24T17:58:09.539Z,35.88
2017-11-24T18:00:37.922Z,36.78
2017-11-24T18:03:05.963Z,33.58
2017-11-24T18:05:33.872Z,40.50
2017-11-24T18:08:01.464Z,33.47
2017-11-24T18:10:29.100Z,36.30
2017-11-24T18:12:56.697Z,39.70
2017-11-24T18:15:24.266Z,34.35
2017-11-24T18:17:51.865Z,28.87
2017-11-24T18:20:19.463Z,33.00
2017-11-24T18:22:47.035Z,36.38
2017-11-24T18:25:14.626Z,29.87
2017-11-24T18:27:42.235Z,26.08
2017-11-24T18:30:09.792Z,31.08
2017-11-24T18:32:37.363Z,28.55
2017-11-24T18:35:04.968Z,36.50
2017-11-24T18:37:33.378Z,40.95
2017-11-24T18:40:00.983Z,45.17
2017-11-24T18:42:28.621Z,42.42
2017-11-24T18:44:56.222Z,41.70
2017-11-24T18:47:23.881Z,44.13
2017-11-24T18:49:51.494Z,44.50
2017-11-24T18:52:19.088Z,46.70
2017-11-24T18:54:46.686Z,45.83
2017-11-24T18:57:15.035Z,37.83
2017-11-24T18:59:42.602Z,43.30
2017-11-24T19:02:10.213Z,45.95
2017-11-24T19:04:38.759Z,49.10
2017-11-24T19:07:06.384Z,43.45
2017-11-24T19:09:33.971Z,41.78
2017-11-24T19:12:01.635Z,40.45
2017-11-24T19:14:30.041Z,41.50
2017-11-24T19:16:58.432Z,47.15
2017-11-24T19:19:26.192Z,45.40
2017-11-24T19:21:53.813Z,41.60
2017-11-24T19:24:21.416Z,37.75
2017-11-24T19:26:49.151Z,35.00
2017-11-24T19:29:17.514Z,30.35
2017-11-24T19:31:45.173Z,25.50
2017-11-24T19:34:12.771Z,24.65
2017-11-24T19:36:41.140Z,23.77
2017-11-24T19:39:09.556Z,28.83
2017-11-24T19:41:37.267Z,30.08
2017-11-24T19:44:04.893Z,28.45
2017-11-24T19:46:32.483Z,30.02
2017-11-24T19:49:00.078Z,29.70
2017-11-24T19:51:27.677Z,26.55
2017-11-24T19:53:55.285Z,30.80
2017-11-24T19:56:22.900Z,30.37
2017-11-24T19:58:50.504Z,26.25
2017-11-24T20:01:18.138Z,29.33
2017-11-24T20:03:48.567Z,36.15
2017-11-24T20:06:16.168Z,34.03
2017-11-24T20:08:43.795Z,30.48
2017-11-24T20:11:11.416Z,29.70
2017-11-24T20:13:39.021Z,29.05
2017-11-24T20:16:06.617Z,32.92
2017-11-24T20:18:34.353Z,34.22
2017-11-24T20:21:01.952Z,33.00
2017-11-24T20:23:29.548Z,43.58
2017-11-24T20:25:57.111Z,37.75
2017-11-24T20:28:24.714Z,34.55
2017-11-24T20:30:53.072Z,36.42
2017-11-24T20:33:20.638Z,34.35
2017-11-24T20:35:48.262Z,32.05
2017-11-24T20:38:15.860Z,40.53
2017-11-24T20:40:55.960Z,42.03
2017-11-24T20:43:23.599Z,37.30
2017-11-24T20:45:51.232Z,44.35
2017-11-24T20:48:18.902Z,33.75
2017-11-24T20:50:49.476Z,38.65
2017-11-24T20:53:17.085Z,40.90
2017-11-24T20:55:44.680Z,39.28
2017-11-24T20:58:12.309Z,36.75
2017-11-24T21:00:39.929Z,40.03
2017-11-24T21:03:07.502Z,35.80
2017-11-24T21:05:35.101Z,37.05
2017-11-24T21:08:03.433Z,35.97
2017-11-24T21:10:30.996Z,36.28
2017-11-24T21:12:58.601Z,41.72
2017-11-24T21:15:26.829Z,37.97
2017-11-24T21:17:54.548Z,36.35
2017-11-24T21:20:23.084Z,35.55
2017-11-24T21:22:50.705Z,34.20
2017-11-24T21:25:18.261Z,34.08
2017-11-24T21:27:45.893Z,45.28
2017-11-24T21:30:13.489Z,39.85
2017-11-24T21:32:41.108Z,36.42
2017-11-24T21:35:08.704Z,34.28
2017-11-24T21:37:36.269Z,31.98
2017-11-24T21:40:03.865Z,36.40
2017-11-24T21:42:31.551Z,36.95
2017-11-24T21:44:59.147Z,34.88
2017-11-24T21:47:26.709Z,36.80
2017-11-24T21:49:54.314Z,31.02
2017-11-24T21:52:21.914Z,38.10
2017-11-24T21:54:49.512Z,37.45
2017-11-24T21:57:17.148Z,33.75
2017-11-24T21:59:44.809Z,34.92
2017-11-24T22:02:12.397Z,32.08
2017-11-24T22:04:39.979Z,29.27
2017-11-24T22:07:07.661Z,30.23
2017-11-24T22:09:35.274Z,30.52
2017-11-24T22:12:02.877Z,27.40
2017-11-24T22:14:30.475Z,35.03
2017-11-24T22:16:58.990Z,26.27
2017-11-24T22:19:26.558Z,30.88
2017-11-24T22:21:54.112Z,29.37
2017-11-24T22:24:21.705Z,34.22
2017-11-24T22:26:49.300Z,36.90
2017-11-24T22:29:16.901Z,35.65
2017-11-24T22:31:44.505Z,34.85
2017-11-24T22:34:12.127Z,35.45
2017-11-24T22:36:39.720Z,39.17
2017-11-24T22:39:07.293Z,30.62
2017-11-24T22:41:34.897Z,34.88
2017-11-24T22:44:02.602Z,29.05
2017-11-24T22:46:30.262Z,32.20
2017-11-24T22:48:57.860Z,36.30
2017-11-24T22:51:25.467Z,44.40
2017-11-24T22:53:53.107Z,50.63
2017-11-24T22:56:20.725Z,37.33
2017-11-24T22:58:48.942Z,43.13
2017-11-24T23:01:16.534Z,46.67
2017-11-24T23:03:44.131Z,48.92
2017-11-24T23:06:11.760Z,51.67
2017-11-24T23:08:39.385Z,41.40
2017-11-24T23:11:07.009Z,44.28
2017-11-24T23:13:35.434Z,36.03
2017-11-24T23:16:03.066Z,37.78
2017-11-24T23:18:30.693Z,42.55
2017-11-24T23:20:58.259Z,38.58
2017-11-24T23:23:25.839Z,33.75
2017-11-24T23:25:53.436Z,41.85
2017-11-24T23:28:20.998Z,44.40
2017-11-24T23:30:48.552Z,38.95
2017-11-24T23:33:16.113Z,39.60
2017-11-24T23:35:43.713Z,42.13
2017-11-24T23:38:11.269Z,42.22
2017-11-24T23:40:38.868Z,38.50
2017-11-24T23:43:06.431Z,41.83
2017-11-24T23:45:34.030Z,39.03
2017-11-24T23:48:01.630Z,44.28
2017-11-24T23:50:30.410Z,44.13
2017-11-24T23:52:58.804Z,46.83
2017-11-24T23:55:27.127Z,51.75
2017-11-24T23:57:54.762Z,40.95
